ENTO/TRF METAR and TAF weather

Enter ICAO airport designator
Station Type Date Time Source
ENTO METAR 2024/06/14 03:20 UTC NOAA

ENTO 140320Z AUTO 00000KT 9999 FEW070/// 08/08 Q1009


Station Type Date Time Source
ENTO Decoded METAR 2024/06/14 03:20 UTC NOAA

Torp, Norway (ENTO) 59-12N 010-16E 88M
Jun 13, 2024 - 11:20 PM EDT / 2024.06.14 0320 UTC
Wind: Calm:0
Visibility: greater than 7 mile(s):0
Sky conditions: mostly clear
Temperature: 46 F (8 C)
Dew Point: 46 F (8 C)
Relative Humidity: 100%
Pressure (altimeter): 29.80 in. Hg (1009 hPa)
ob: ENTO 140320Z AUTO 00000KT 9999 FEW070/// 08/08 Q1009
cycle: 3

Station Type Date Time Source
ENTO TAF 2024/06/13 18:39 UTC NOAA